createdAt,value
2023-01-09T00:01:14.866Z,8.25
2023-01-09T00:03:48.446Z,8.15
2023-01-09T00:06:19.782Z,8.01
2023-01-09T00:08:50.640Z,8.04
2023-01-09T00:11:21.985Z,8.12
2023-01-09T00:13:55.322Z,8.13
2023-01-09T00:16:25.857Z,8.15
2023-01-09T00:19:00.459Z,8.19
2023-01-09T00:21:33.378Z,8.20
2023-01-09T00:24:03.906Z,8.15
2023-01-09T00:26:35.806Z,8.13
2023-01-09T00:29:07.713Z,7.97
2023-01-09T00:31:38.375Z,7.98
2023-01-09T00:34:13.279Z,8.04
2023-01-09T00:36:44.022Z,8.05
2023-01-09T00:39:14.779Z,8.00
2023-01-09T00:41:50.036Z,7.91
2023-01-09T00:44:26.252Z,8.05
2023-01-09T00:46:59.860Z,8.08
2023-01-09T00:49:36.882Z,8.05
2023-01-09T00:52:10.233Z,8.12
2023-01-09T00:54:41.434Z,8.17
2023-01-09T00:57:15.968Z,8.23
2023-01-09T00:59:47.102Z,8.28
2023-01-09T01:02:23.775Z,8.28
2023-01-09T01:05:12.540Z,8.37
2023-01-09T01:07:50.575Z,8.40
2023-01-09T01:10:24.013Z,8.37
2023-01-09T01:12:55.428Z,8.35
2023-01-09T01:15:29.410Z,8.35
2023-01-09T01:18:00.039Z,8.35
2023-01-09T01:20:42.724Z,8.34
2023-01-09T01:23:13.774Z,8.37
2023-01-09T01:25:45.373Z,8.41
2023-01-09T01:28:15.916Z,8.42
2023-01-09T01:30:46.612Z,8.39
2023-01-09T01:33:17.337Z,8.37
2023-01-09T01:35:50.765Z,8.34
2023-01-09T01:38:21.171Z,8.32
2023-01-09T01:40:56.311Z,8.29
2023-01-09T01:43:27.346Z,8.16
2023-01-09T01:45:58.198Z,8.08
2023-01-09T01:48:32.531Z,8.15
2023-01-09T01:51:10.150Z,8.20
2023-01-09T01:53:44.375Z,8.16
2023-01-09T01:56:19.001Z,8.14
2023-01-09T01:58:54.827Z,8.12
2023-01-09T02:01:27.359Z,8.10
2023-01-09T02:04:00.172Z,8.05
2023-01-09T02:06:36.486Z,8.02
2023-01-09T02:09:15.435Z,8.01
2023-01-09T02:11:48.219Z,8.00
2023-01-09T02:14:19.444Z,7.98
2023-01-09T02:17:07.811Z,7.95
2023-01-09T02:20:11.231Z,7.93
2023-01-09T02:23:03.279Z,7.93
2023-01-09T02:26:03.268Z,7.91
2023-01-09T02:28:58.485Z,7.90
2023-01-09T02:31:40.556Z,7.90
2023-01-09T02:34:20.666Z,7.81
2023-01-09T02:36:59.021Z,7.92
2023-01-09T02:39:36.136Z,7.89
2023-01-09T02:42:12.430Z,7.76
2023-01-09T02:44:43.148Z,7.85
2023-01-09T02:47:47.673Z,7.86
2023-01-09T02:50:39.622Z,7.81
2023-01-09T02:53:50.421Z,7.79
2023-01-09T02:56:36.580Z,7.75
2023-01-09T02:59:22.509Z,7.75
2023-01-09T03:02:05.726Z,7.78
2023-01-09T03:04:50.887Z,7.81
2023-01-09T03:07:28.107Z,7.81
2023-01-09T03:10:04.753Z,7.84
2023-01-09T03:12:38.229Z,7.87
2023-01-09T03:15:14.151Z,7.85
2023-01-09T03:17:49.657Z,7.85
2023-01-09T03:20:27.852Z,7.86
2023-01-09T03:23:01.508Z,7.86
2023-01-09T03:25:33.850Z,7.84
2023-01-09T03:28:07.665Z,7.82
2023-01-09T03:30:39.783Z,7.84
2023-01-09T03:33:12.496Z,7.84
2023-01-09T03:35:45.595Z,7.83
2023-01-09T03:38:18.618Z,7.83
2023-01-09T03:40:49.370Z,7.85
2023-01-09T03:43:22.463Z,7.85
2023-01-09T03:45:53.317Z,7.91
2023-01-09T03:48:26.010Z,7.91
2023-01-09T03:50:59.457Z,7.94
2023-01-09T03:53:31.252Z,7.94
2023-01-09T03:56:02.433Z,7.92
2023-01-09T03:58:32.807Z,7.84
2023-01-09T04:01:05.288Z,7.86
2023-01-09T04:03:36.366Z,7.77
2023-01-09T04:06:10.784Z,7.84
2023-01-09T04:08:42.873Z,7.85
2023-01-09T04:11:13.551Z,7.93
2023-01-09T04:13:45.160Z,7.92
2023-01-09T04:16:15.694Z,7.91
2023-01-09T04:18:46.214Z,7.88
2023-01-09T04:21:19.308Z,7.90
2023-01-09T04:23:52.151Z,7.95
2023-01-09T04:26:22.735Z,7.98
2023-01-09T04:28:53.340Z,7.91
2023-01-09T04:31:25.474Z,7.95
2023-01-09T04:33:56.121Z,7.89
2023-01-09T04:36:29.201Z,7.92
2023-01-09T04:38:59.656Z,7.95
2023-01-09T04:41:42.785Z,7.94
2023-01-09T04:44:13.288Z,7.96
2023-01-09T04:46:43.869Z,7.97
2023-01-09T04:49:15.732Z,8.00
2023-01-09T04:51:48.925Z,8.02
2023-01-09T04:54:27.876Z,8.00
2023-01-09T04:56:58.609Z,8.00
2023-01-09T04:59:29.198Z,7.92
2023-01-09T05:02:01.397Z,7.99
2023-01-09T05:04:32.012Z,7.97
2023-01-09T05:07:07.920Z,8.00
2023-01-09T05:09:38.456Z,7.96
2023-01-09T05:12:09.690Z,8.02
2023-01-09T05:14:40.075Z,7.98
2023-01-09T05:17:11.393Z,7.99
2023-01-09T05:19:42.525Z,7.99
2023-01-09T05:22:15.619Z,8.00
2023-01-09T05:24:46.378Z,7.99
2023-01-09T05:27:16.752Z,8.00
2023-01-09T05:29:47.429Z,7.96
2023-01-09T05:32:17.861Z,8.03
2023-01-09T05:34:54.203Z,8.05
2023-01-09T05:37:27.179Z,8.06
2023-01-09T05:39:58.347Z,8.07
2023-01-09T05:42:29.412Z,8.09
2023-01-09T05:44:59.877Z,8.09
2023-01-09T05:47:30.841Z,8.11
2023-01-09T05:50:01.460Z,8.05
2023-01-09T05:52:36.748Z,8.08
2023-01-09T05:55:08.800Z,7.94
2023-01-09T05:57:41.726Z,7.99
2023-01-09T06:00:15.978Z,7.94
2023-01-09T06:02:46.401Z,7.90
2023-01-09T06:05:20.963Z,7.88
2023-01-09T06:07:54.212Z,7.89
2023-01-09T06:10:24.639Z,7.90
2023-01-09T06:12:55.999Z,7.93
2023-01-09T06:15:27.382Z,7.85
2023-01-09T06:17:58.181Z,7.96
2023-01-09T06:20:28.711Z,7.92
2023-01-09T06:23:04.308Z,7.91
2023-01-09T06:25:35.031Z,7.93
2023-01-09T06:28:05.579Z,7.94
2023-01-09T06:30:36.085Z,7.93
2023-01-09T06:33:06.718Z,7.75
2023-01-09T06:35:37.622Z,7.85
2023-01-09T06:38:11.273Z,7.74
2023-01-09T06:40:42.980Z,7.66
2023-01-09T06:43:14.444Z,7.66
2023-01-09T06:45:46.299Z,7.70
2023-01-09T06:48:18.148Z,7.79
2023-01-09T06:50:50.679Z,7.83
2023-01-09T06:53:31.367Z,7.77
2023-01-09T06:56:02.726Z,7.68
2023-01-09T06:58:33.772Z,7.55
2023-01-09T07:01:04.393Z,7.33
2023-01-09T07:03:35.035Z,7.36
2023-01-09T07:06:08.309Z,7.29
2023-01-09T07:08:41.413Z,7.20
2023-01-09T07:11:15.839Z,7.12
2023-01-09T07:13:48.786Z,7.05
2023-01-09T07:16:19.268Z,7.03
2023-01-09T07:18:49.663Z,6.97
2023-01-09T07:21:20.438Z,6.91
2023-01-09T07:23:54.158Z,6.85
2023-01-09T07:26:25.539Z,6.80
2023-01-09T07:28:55.895Z,6.75
2023-01-09T07:31:26.407Z,6.74
2023-01-09T07:33:56.912Z,6.72
2023-01-09T07:36:27.396Z,6.71
2023-01-09T07:39:00.463Z,6.68
2023-01-09T07:41:30.882Z,6.63
2023-01-09T07:44:01.375Z,6.55
2023-01-09T07:46:31.941Z,6.63
2023-01-09T07:49:02.428Z,6.64
2023-01-09T07:51:32.868Z,6.61
2023-01-09T07:54:06.019Z,6.58
2023-01-09T07:56:36.443Z,6.56
2023-01-09T07:59:07.051Z,6.56
2023-01-09T08:01:38.652Z,6.53
2023-01-09T08:04:10.023Z,6.52
2023-01-09T08:06:44.536Z,6.49
2023-01-09T08:09:24.680Z,6.45
2023-01-09T08:11:57.534Z,6.46
2023-01-09T08:14:28.120Z,6.46
2023-01-09T08:16:58.503Z,6.46
2023-01-09T08:19:30.434Z,6.54
2023-01-09T08:22:00.853Z,6.60
2023-01-09T08:24:33.823Z,6.64
2023-01-09T08:27:04.298Z,6.65
2023-01-09T08:29:38.537Z,6.68
2023-01-09T08:32:11.407Z,6.71
2023-01-09T08:34:41.758Z,6.72
2023-01-09T08:37:12.235Z,6.74
2023-01-09T08:39:45.816Z,6.78
2023-01-09T08:42:30.784Z,6.80
2023-01-09T08:45:13.695Z,6.81
2023-01-09T08:47:44.591Z,6.84
2023-01-09T08:50:18.378Z,6.85
2023-01-09T08:52:49.029Z,6.89
2023-01-09T08:55:36.835Z,6.96
2023-01-09T08:58:07.544Z,7.00
2023-01-09T09:00:40.319Z,7.03
2023-01-09T09:03:12.057Z,7.01
2023-01-09T09:05:42.557Z,7.03
2023-01-09T09:08:13.139Z,7.02
2023-01-09T09:10:48.232Z,7.08
2023-01-09T09:13:18.684Z,7.09
2023-01-09T09:15:49.098Z,7.16
2023-01-09T09:18:20.603Z,7.28
2023-01-09T09:20:51.031Z,7.35
2023-01-09T09:23:22.762Z,7.57
2023-01-09T09:25:56.159Z,7.70
2023-01-09T09:28:26.593Z,7.79
2023-01-09T09:30:57.225Z,7.90
2023-01-09T09:33:27.958Z,7.94
2023-01-09T09:35:58.427Z,8.11
2023-01-09T09:38:29.053Z,8.12
2023-01-09T09:41:35.134Z,8.15
2023-01-09T09:44:36.361Z,8.13
2023-01-09T09:47:14.858Z,8.09
2023-01-09T09:49:54.365Z,8.11
2023-01-09T09:52:38.842Z,8.20
2023-01-09T09:55:22.040Z,8.24
2023-01-09T09:58:05.198Z,8.28
2023-01-09T10:00:38.268Z,8.33
2023-01-09T10:03:18.401Z,8.26
2023-01-09T10:05:53.893Z,8.39
2023-01-09T10:08:33.071Z,8.39
2023-01-09T10:11:04.209Z,8.41
2023-01-09T10:13:49.657Z,8.44
2023-01-09T10:16:31.961Z,8.34
2023-01-09T10:19:16.241Z,8.32
2023-01-09T10:21:55.356Z,8.36
2023-01-09T10:24:42.930Z,8.42
2023-01-09T10:27:27.510Z,8.47
2023-01-09T10:30:14.733Z,8.49
2023-01-09T10:33:17.313Z,8.51
2023-01-09T10:36:35.480Z,8.44
2023-01-09T10:39:12.170Z,8.23
2023-01-09T10:41:51.336Z,8.11
2023-01-09T10:44:29.597Z,8.08
2023-01-09T10:47:04.988Z,8.13
2023-01-09T10:49:35.388Z,8.11
2023-01-09T10:52:16.772Z,8.18
2023-01-09T10:54:55.035Z,8.18
2023-01-09T10:57:43.141Z,8.17
2023-01-09T11:00:23.215Z,8.11
2023-01-09T11:02:58.379Z,8.04
2023-01-09T11:05:32.926Z,8.00
2023-01-09T11:08:16.537Z,8.04
2023-01-09T11:10:51.164Z,8.29
2023-01-09T11:13:24.580Z,8.38
2023-01-09T11:16:09.313Z,8.29
2023-01-09T11:18:52.795Z,8.53
2023-01-09T11:21:36.032Z,8.58
2023-01-09T11:24:36.374Z,8.59
2023-01-09T11:27:24.209Z,8.67
2023-01-09T11:30:22.596Z,8.68
2023-01-09T11:32:53.018Z,8.70
2023-01-09T11:35:34.083Z,8.77
2023-01-09T11:38:17.358Z,8.86
2023-01-09T11:40:51.868Z,8.96
2023-01-09T11:43:37.827Z,9.03
2023-01-09T11:46:13.232Z,8.99
2023-01-09T11:48:57.348Z,9.00
2023-01-09T11:51:32.369Z,9.09
2023-01-09T11:54:20.281Z,9.20
2023-01-09T11:56:52.708Z,9.24
2023-01-09T11:59:25.663Z,9.28
2023-01-09T12:02:26.022Z,9.24
2023-01-09T12:05:09.630Z,9.23
2023-01-09T12:08:00.120Z,9.26
2023-01-09T12:10:55.242Z,9.29
2023-01-09T12:13:50.160Z,9.26
2023-01-09T12:16:34.080Z,9.25
2023-01-09T12:19:23.099Z,9.26
2023-01-09T12:22:05.035Z,9.25
2023-01-09T12:25:09.735Z,9.29
2023-01-09T12:27:59.495Z,9.23
2023-01-09T12:30:44.185Z,9.24
2023-01-09T12:33:31.272Z,9.26
2023-01-09T12:36:33.548Z,9.25
2023-01-09T12:39:16.937Z,9.28
2023-01-09T12:42:13.797Z,9.29
2023-01-09T12:44:54.075Z,9.34
2023-01-09T12:47:52.672Z,9.38
2023-01-09T12:50:43.527Z,9.40
2023-01-09T12:53:22.543Z,9.37
2023-01-09T12:55:58.765Z,9.41
2023-01-09T12:58:41.841Z,9.41
2023-01-09T13:01:18.120Z,9.43
2023-01-09T13:03:56.001Z,9.44
2023-01-09T13:06:29.606Z,9.41
2023-01-09T13:09:10.763Z,9.35
2023-01-09T13:11:47.417Z,9.39
2023-01-09T13:14:27.446Z,9.43
2023-01-09T13:17:00.704Z,9.43
2023-01-09T13:19:36.961Z,9.40
2023-01-09T13:22:12.034Z,9.38
2023-01-09T13:25:05.280Z,9.34
2023-01-09T13:27:40.336Z,9.28
2023-01-09T13:30:41.371Z,9.34
2023-01-09T13:33:22.780Z,9.29
2023-01-09T13:35:55.737Z,9.27
2023-01-09T13:38:29.570Z,9.29
2023-01-09T13:41:32.597Z,9.26
2023-01-09T13:44:05.584Z,9.32
2023-01-09T13:46:44.103Z,9.26
2023-01-09T13:49:33.412Z,9.19
2023-01-09T13:52:08.299Z,9.27
2023-01-09T13:55:04.245Z,9.29
2023-01-09T13:57:37.382Z,9.24
2023-01-09T14:00:44.071Z,9.15
2023-01-09T14:03:26.020Z,9.12
2023-01-09T14:06:24.296Z,9.10
2023-01-09T14:09:15.728Z,9.06
2023-01-09T14:11:48.699Z,9.08
2023-01-09T14:14:33.264Z,9.08
2023-01-09T14:17:05.627Z,9.06
2023-01-09T14:19:42.744Z,9.05
2023-01-09T14:22:29.274Z,9.02
2023-01-09T14:25:05.137Z,8.89
2023-01-09T14:28:11.635Z,9.06
2023-01-09T14:31:09.593Z,8.90
2023-01-09T14:33:43.696Z,8.74
2023-01-09T14:36:29.338Z,8.70
2023-01-09T14:39:13.006Z,8.63
2023-01-09T14:42:12.294Z,8.39
2023-01-09T14:44:55.456Z,8.55
2023-01-09T14:47:55.263Z,8.57
2023-01-09T14:50:34.983Z,8.63
2023-01-09T14:53:14.030Z,8.70
2023-01-09T14:55:54.076Z,8.72
2023-01-09T14:58:26.835Z,8.71
2023-01-09T15:01:05.172Z,8.72
2023-01-09T15:03:40.795Z,8.70
2023-01-09T15:06:20.337Z,8.69
2023-01-09T15:08:59.107Z,8.67
2023-01-09T15:11:32.048Z,8.65
2023-01-09T15:14:05.211Z,8.64
2023-01-09T15:16:36.346Z,8.62
2023-01-09T15:19:10.542Z,8.58
2023-01-09T15:21:43.653Z,8.55
2023-01-09T15:24:27.184Z,8.50
2023-01-09T15:26:59.935Z,8.49
2023-01-09T15:29:31.576Z,8.49
2023-01-09T15:32:08.037Z,8.49
2023-01-09T15:34:39.639Z,8.49
2023-01-09T15:37:27.542Z,8.48
2023-01-09T15:40:05.631Z,8.47
2023-01-09T15:42:52.147Z,8.46
2023-01-09T15:45:29.179Z,8.43
2023-01-09T15:48:20.885Z,8.41
2023-01-09T15:50:54.408Z,8.32
2023-01-09T15:53:27.117Z,8.18
2023-01-09T15:56:30.509Z,8.00
2023-01-09T15:59:01.909Z,7.89
2023-01-09T16:01:33.852Z,7.80
2023-01-09T16:04:17.052Z,7.78
2023-01-09T16:06:50.683Z,7.76
2023-01-09T16:09:29.248Z,7.71
2023-01-09T16:12:06.682Z,7.67
2023-01-09T16:14:39.877Z,7.62
2023-01-09T16:17:18.386Z,7.65
2023-01-09T16:19:51.128Z,7.68
2023-01-09T16:22:24.580Z,7.67
2023-01-09T16:25:00.436Z,7.67
2023-01-09T16:27:34.548Z,7.69
2023-01-09T16:30:09.424Z,7.70
2023-01-09T16:32:51.941Z,7.67
2023-01-09T16:35:26.364Z,7.62
2023-01-09T16:37:56.926Z,7.58
2023-01-09T16:40:29.978Z,7.57
2023-01-09T16:43:01.742Z,7.56
2023-01-09T16:45:35.857Z,7.58
2023-01-09T16:48:12.826Z,7.57
2023-01-09T16:50:44.242Z,7.51
2023-01-09T16:53:18.678Z,7.53
2023-01-09T16:55:52.208Z,7.53
2023-01-09T16:58:28.817Z,7.54
2023-01-09T17:00:59.470Z,7.64
2023-01-09T17:03:30.947Z,7.61
2023-01-09T17:06:04.209Z,7.60
2023-01-09T17:08:37.074Z,7.61
2023-01-09T17:11:07.996Z,7.58
2023-01-09T17:13:41.083Z,7.64
2023-01-09T17:16:13.770Z,7.65
2023-01-09T17:18:44.289Z,7.61
2023-01-09T17:21:29.068Z,7.53
2023-01-09T17:24:12.476Z,7.53
2023-01-09T17:27:01.048Z,7.53
2023-01-09T17:29:37.328Z,7.51
2023-01-09T17:32:08.443Z,7.50
2023-01-09T17:34:40.919Z,7.50
2023-01-09T17:37:16.087Z,7.47
2023-01-09T17:39:46.835Z,7.37
2023-01-09T17:42:17.284Z,7.24
2023-01-09T17:44:50.217Z,7.21
2023-01-09T17:47:20.697Z,7.15
2023-01-09T17:49:51.468Z,7.14
2023-01-09T17:52:22.137Z,7.17
2023-01-09T17:54:53.001Z,7.16
2023-01-09T17:57:23.687Z,7.15
2023-01-09T17:59:56.848Z,7.12
2023-01-09T18:02:27.341Z,7.08
2023-01-09T18:04:57.725Z,7.05
2023-01-09T18:07:28.208Z,6.97
2023-01-09T18:09:58.663Z,7.05
2023-01-09T18:12:29.252Z,7.07
2023-01-09T18:15:02.809Z,7.12
2023-01-09T18:17:33.330Z,7.10
2023-01-09T18:20:04.049Z,7.08
2023-01-09T18:22:35.185Z,7.08
2023-01-09T18:25:06.258Z,7.08
2023-01-09T18:27:41.162Z,7.11
2023-01-09T18:30:15.392Z,7.11
2023-01-09T18:32:45.924Z,7.05
2023-01-09T18:35:19.849Z,6.96
2023-01-09T18:37:50.861Z,6.93
2023-01-09T18:40:22.405Z,6.91
2023-01-09T18:42:53.033Z,6.94
2023-01-09T18:45:26.795Z,6.94
2023-01-09T18:47:58.089Z,6.93
2023-01-09T18:50:28.645Z,6.83
2023-01-09T18:52:59.801Z,6.95
2023-01-09T18:55:30.208Z,6.96
2023-01-09T18:58:00.953Z,6.84
2023-01-09T19:00:34.244Z,6.97
2023-01-09T19:03:07.273Z,6.90
2023-01-09T19:05:37.811Z,6.89
2023-01-09T19:08:09.096Z,6.90
2023-01-09T19:10:39.835Z,6.89
2023-01-09T19:13:10.262Z,6.90
2023-01-09T19:15:45.496Z,6.93
2023-01-09T19:18:17.564Z,6.87
2023-01-09T19:20:47.969Z,6.92
2023-01-09T19:23:21.589Z,6.95
2023-01-09T19:25:53.888Z,6.97
2023-01-09T19:28:24.376Z,6.96
2023-01-09T19:31:00.351Z,6.86
2023-01-09T19:33:30.826Z,6.98
2023-01-09T19:36:01.280Z,6.90
2023-01-09T19:38:32.121Z,7.03
2023-01-09T19:41:13.510Z,6.93
2023-01-09T19:43:44.247Z,6.99
2023-01-09T19:46:19.928Z,7.00
2023-01-09T19:48:51.663Z,6.96
2023-01-09T19:51:25.581Z,7.00
2023-01-09T19:56:30.390Z,7.00
2023-01-09T19:59:02.964Z,7.04
2023-01-09T20:01:38.906Z,6.84
2023-01-09T20:04:14.033Z,7.08
2023-01-09T20:06:46.703Z,7.06
2023-01-09T20:09:21.748Z,7.11
2023-01-09T20:11:58.522Z,7.05
2023-01-09T20:14:29.941Z,7.14
2023-01-09T20:17:04.468Z,7.18
2023-01-09T20:19:35.887Z,7.20
2023-01-09T20:22:07.677Z,7.23
2023-01-09T20:24:40.292Z,7.24
2023-01-09T20:27:11.818Z,7.27
2023-01-09T20:29:42.398Z,7.28
2023-01-09T20:32:15.520Z,7.33
2023-01-09T20:34:49.240Z,7.36
2023-01-09T20:37:20.341Z,7.40
2023-01-09T20:39:52.993Z,7.43
2023-01-09T20:42:23.480Z,7.43
2023-01-09T20:44:55.768Z,7.41
2023-01-09T20:47:29.133Z,7.39
2023-01-09T20:49:59.673Z,7.41
2023-01-09T20:52:30.231Z,7.40
2023-01-09T20:55:00.966Z,7.40
2023-01-09T20:57:31.956Z,7.37
2023-01-09T21:00:02.611Z,7.38
2023-01-09T21:02:35.927Z,7.25
2023-01-09T21:05:07.041Z,7.36
2023-01-09T21:07:37.466Z,7.37
2023-01-09T21:10:12.084Z,7.40
2023-01-09T21:12:42.721Z,7.41
2023-01-09T21:15:16.734Z,7.42
2023-01-09T21:17:52.380Z,7.45
2023-01-09T21:20:23.057Z,7.44
2023-01-09T21:22:54.058Z,7.44
2023-01-09T21:25:24.922Z,7.44
2023-01-09T21:27:55.501Z,7.43
2023-01-09T21:30:26.055Z,7.42
2023-01-09T21:32:59.108Z,7.40
2023-01-09T21:35:29.643Z,7.40
2023-01-09T21:38:01.197Z,7.37
2023-01-09T21:40:31.982Z,7.37
2023-01-09T21:43:15.214Z,7.38
2023-01-09T21:45:58.457Z,7.39
2023-01-09T21:48:31.889Z,7.40
2023-01-09T21:51:05.154Z,7.40
2023-01-09T21:53:35.634Z,7.40
2023-01-09T21:56:06.781Z,7.39
2023-01-09T21:58:37.220Z,7.40
2023-01-09T22:01:08.180Z,7.38
2023-01-09T22:03:41.594Z,7.35
2023-01-09T22:06:12.307Z,7.39
2023-01-09T22:08:42.757Z,7.36
2023-01-09T22:11:16.014Z,7.33
2023-01-09T22:13:49.975Z,7.33
2023-01-09T22:16:24.700Z,7.36
2023-01-09T22:18:58.385Z,7.34
2023-01-09T22:21:28.840Z,7.37
2023-01-09T22:24:01.571Z,7.38
2023-01-09T22:26:32.853Z,7.38
2023-01-09T22:29:03.507Z,7.20
2023-01-09T22:31:35.033Z,7.31
2023-01-09T22:34:09.061Z,7.29
2023-01-09T22:36:39.702Z,7.20
2023-01-09T22:39:10.123Z,7.08
2023-01-09T22:41:40.609Z,6.99
2023-01-09T22:44:13.334Z,6.93
2023-01-09T22:46:43.780Z,6.89
2023-01-09T22:49:17.061Z,6.92
2023-01-09T22:51:47.687Z,6.91
2023-01-09T22:54:18.362Z,6.94
2023-01-09T22:56:48.935Z,6.98
2023-01-09T22:59:19.499Z,7.00
2023-01-09T23:01:50.241Z,6.99
2023-01-09T23:04:23.629Z,7.04
2023-01-09T23:06:55.035Z,7.08
2023-01-09T23:09:26.712Z,7.10
2023-01-09T23:12:06.786Z,7.10
2023-01-09T23:14:39.723Z,7.12
2023-01-09T23:17:12.972Z,7.00
2023-01-09T23:19:46.177Z,6.96
2023-01-09T23:22:16.567Z,6.88
2023-01-09T23:24:48.006Z,6.88
2023-01-09T23:27:21.088Z,6.92
2023-01-09T23:29:51.688Z,7.01
2023-01-09T23:32:23.145Z,7.06
2023-01-09T23:34:56.294Z,7.13
2023-01-09T23:37:30.239Z,7.13
2023-01-09T23:40:01.074Z,7.17
2023-01-09T23:42:44.216Z,7.16
2023-01-09T23:45:14.854Z,7.19
2023-01-09T23:47:45.554Z,7.15
2023-01-09T23:50:19.122Z,7.22
2023-01-09T23:52:49.578Z,7.27
2023-01-09T23:55:21.031Z,7.29
2023-01-09T23:57:54.436Z,7.32
